Time;durP1;ratioP1;P1;durP2;ratioP2;P2;SDS_P1;SDS_P2;PMS_P1;PMS_P2;Temp;Humidity;BMP_temperature;BMP_pressure;BME280_temperature;BME280_humidity;BME280_pressure;Samples;Min_cycle;Max_cycle;Signal;HPM_P1;HPM_P2
2022/01/12 00:01:12;;;;;;;38.08;20.27;;;;;;;-1.50;55.00;101334.84;4373454;32;33928;-56
2022/01/12 00:03:39;;;;;;;34.00;18.80;;;;;;;-1.41;55.32;101335.81;4387970;32;34242;-56
2022/01/12 00:06:07;;;;;;;36.58;20.17;;;;;;;-1.31;55.22;101328.16;4384291;32;33125;-56
2022/01/12 00:08:35;;;;;;;40.67;21.02;;;;;;;-1.23;55.10;101331.72;4384241;32;33707;-56
2022/01/12 00:11:03;;;;;;;37.40;19.35;;;;;;;-1.13;54.58;101333.53;4388496;32;34080;-56
2022/01/12 00:13:32;;;;;;;38.40;20.00;;;;;;;-1.18;54.55;101332.63;4373122;32;33829;-55
2022/01/12 00:16:01;;;;;;;40.58;22.02;;;;;;;-1.32;54.99;101335.03;4376785;32;33829;-56
2022/01/12 00:18:30;;;;;;;36.05;19.42;;;;;;;-1.40;55.43;101332.37;4386859;32;34247;-56
2022/01/12 00:20:58;;;;;;;36.30;19.62;;;;;;;-1.52;55.77;101329.63;4380224;32;34834;-55
2022/01/12 00:23:25;;;;;;;38.42;20.85;;;;;;;-1.34;55.29;101334.16;4373927;32;33752;-56
2022/01/12 00:34:00;;;;;;;35.72;18.62;;;;;;;-1.52;55.17;101345.19;4388646;32;34494;-56
2022/01/12 00:36:29;;;;;;;36.78;19.33;;;;;;;-1.41;55.07;101346.19;4382620;32;33729;-55
2022/01/12 00:38:58;;;;;;;31.85;17.83;;;;;;;-1.57;55.64;101346.84;4376121;32;34323;-55
2022/01/12 00:41:26;;;;;;;41.05;21.23;;;;;;;-1.59;55.85;101344.25;4387752;32;34930;-56
2022/01/12 00:44:00;;;;;;;37.42;20.10;;;;;;;-1.57;54.78;101354.63;4386725;32;34798;-56
2022/01/12 00:46:30;;;;;;;31.05;17.02;;;;;;;-1.73;55.79;101363.88;4380700;32;32995;-56
2022/01/12 00:49:00;;;;;;;29.25;15.65;;;;;;;-1.54;55.37;101353.78;4388408;32;33648;-56
2022/01/12 00:51:32;;;;;;;28.75;15.65;;;;;;;-1.65;55.14;101362.28;4384541;32;34047;-56
2022/01/12 00:54:01;;;;;;;26.30;14.35;;;;;;;-1.76;55.55;101357.78;4387436;32;33953;-56
2022/01/12 00:56:29;;;;;;;24.80;13.40;;;;;;;-1.64;55.32;101363.16;4373006;32;33148;-55
2022/01/12 00:58:56;;;;;;;25.30;13.18;;;;;;;-1.54;54.93;101366.75;4373448;32;34248;-56
2022/01/12 01:01:24;;;;;;;25.10;12.68;;;;;;;-1.48;54.48;101365.09;4375171;32;33613;-56
2022/01/12 01:03:52;;;;;;;24.42;13.13;;;;;;;-1.64;54.66;101363.16;4373647;32;35142;-56
2022/01/12 01:06:20;;;;;;;23.83;13.43;;;;;;;-1.70;55.15;101363.09;4374312;32;33376;-57
2022/01/12 01:08:51;;;;;;;24.35;13.02;;;;;;;-1.58;54.51;101363.22;4373272;32;33451;-56
2022/01/12 01:11:19;;;;;;;24.17;13.55;;;;;;;-1.62;54.79;101361.47;4388010;32;33498;-55
2022/01/12 01:14:02;;;;;;;29.95;15.63;;;;;;;-1.74;55.03;101362.16;4380220;32;33949;-56
2022/01/12 01:27:30;;;;;;;25.25;13.85;;;;;;;-1.95;55.70;101367.03;4373607;32;33904;-56
2022/01/12 01:29:57;;;;;;;31.87;15.43;;;;;;;-1.87;55.23;101371.47;4373230;32;33344;-55
2022/01/12 01:32:26;;;;;;;27.33;14.82;;;;;;;-1.86;55.26;101374.91;4373329;32;34992;-56
2022/01/12 01:34:54;;;;;;;26.50;14.57;;;;;;;-1.83;54.92;101367.19;4372913;32;34194;-56
2022/01/12 01:37:21;;;;;;;28.62;14.93;;;;;;;-2.01;55.75;101370.41;4382319;32;33613;-56
2022/01/12 01:39:49;;;;;;;;;;;;;;;-1.93;55.72;101370.50;4382649;32;34793;-56
2022/01/12 01:42:28;;;;;;;28.52;13.43;;;;;;;-1.97;55.40;101374.78;4387988;32;34976;-56
2022/01/12 01:55:44;;;;;;;29.10;15.02;;;;;;;-2.14;55.60;101386.56;4387758;32;34019;-56
2022/01/12 01:58:12;;;;;;;26.62;14.93;;;;;;;-2.19;55.72;101395.16;4386972;32;34228;-55
2022/01/12 02:00:40;;;;;;;27.65;15.18;;;;;;;-2.38;56.51;101391.38;4385203;32;34510;-55
2022/01/12 02:03:08;;;;;;;28.60;14.23;;;;;;;-2.40;56.81;101395.66;4373274;32;34215;-55
2022/01/12 02:05:40;;;;;;;;;;;;;;;-2.39;56.74;101393.94;4372633;32;34184;-56
2022/01/12 02:08:07;;;;;;;30.58;14.30;;;;;;;-2.12;55.92;101385.75;4381582;32;32733;-56
2022/01/12 02:10:35;;;;;;;28.38;15.23;;;;;;;-2.30;55.76;101382.87;4386942;32;34719;-56
2022/01/12 02:13:03;;;;;;;28.45;14.27;;;;;;;-2.33;56.29;101390.56;4388138;32;34048;-56
2022/01/12 02:15:32;;;;;;;29.33;15.15;;;;;;;-2.39;55.99;101387.03;4375873;32;34959;-55
2022/01/12 02:18:11;;;;;;;27.23;15.10;;;;;;;-2.35;56.04;101387.94;4374392;32;33696;-55
2022/01/12 02:35:34;;;;;;;30.85;16.58;;;;;;;-2.63;57.44;101397.81;4374167;32;35075;-56
2022/01/12 02:40:52;;;;;;;31.58;17.17;;;;;;;-2.41;57.54;101399.06;4374529;32;34455;-56
2022/01/12 02:53:38;;;;;;;32.28;16.20;;;;;;;-2.33;56.59;101385.41;4379382;32;33623;-56
2022/01/12 02:54:22;;;;;;;33.53;17.83;;;;;;;-2.15;56.15;101393.47;4377261;32;33512;-55
2022/01/12 02:56:50;;;;;;;32.22;16.80;;;;;;;-2.31;56.71;101394.06;4387517;32;34498;-56
2022/01/12 02:59:18;;;;;;;34.78;18.40;;;;;;;-2.32;56.85;101398.38;4389700;32;33862;-56
2022/01/12 03:04:16;;;;;;;32.97;17.67;;;;;;;-2.51;58.18;101409.25;4388430;32;34201;-55
2022/01/12 03:06:45;;;;;;;35.30;18.15;;;;;;;-2.53;57.87;101416.09;4373856;32;35101;-55
2022/01/12 03:09:14;;;;;;;48.40;21.77;;;;;;;-2.44;57.51;101403.34;4374489;32;34445;-56
2022/01/12 03:11:42;;;;;;;115.25;38.15;;;;;;;-2.42;57.32;101404.25;4383795;32;33250;-56
2022/01/12 03:14:11;;;;;;;99.28;36.28;;;;;;;-2.30;57.04;101407.03;4388982;32;33325;-56
2022/01/12 03:16:38;;;;;;;53.40;26.00;;;;;;;-2.48;57.26;101412.75;4385449;32;34255;-56
2022/01/12 03:19:06;;;;;;;48.42;23.00;;;;;;;-2.36;57.29;101412.09;4359877;32;33329;-56
2022/01/12 03:21:34;;;;;;;36.03;18.83;;;;;;;-2.48;57.60;101409.28;4374353;32;33460;-56
2022/01/12 03:24:02;;;;;;;;;;;;;;;-2.43;57.31;101410.25;4374762;32;33483;-57
2022/01/12 03:26:30;;;;;;;36.08;18.90;;;;;;;-2.26;57.04;101414.00;4375134;32;34780;-55
2022/01/12 03:28:59;;;;;;;34.53;18.17;;;;;;;-2.41;56.92;101412.00;4374422;32;33757;-56
2022/01/12 03:31:30;;;;;;;34.92;19.10;;;;;;;-2.51;57.59;101422.19;4375602;32;33222;-55
2022/01/12 03:34:06;;;;;;;54.15;24.27;;;;;;;-2.40;57.40;101418.06;4375404;32;35183;-56
2022/01/12 03:37:05;;;;;;;61.15;26.17;;;;;;;-2.70;57.87;101415.78;4376656;32;34074;-56
2022/01/12 03:39:30;;;;;;;44.75;21.98;;;;;;;-2.40;57.27;101428.41;4373754;32;34326;-56
2022/01/12 03:41:58;;;;;;;49.85;23.70;;;;;;;-2.80;58.46;101419.91;4374863;32;33778;-55
2022/01/12 03:44:45;;;;;;;58.30;26.85;;;;;;;-2.43;57.92;101412.81;4374392;32;34258;-55
2022/01/12 03:47:12;;;;;;;54.92;25.55;;;;;;;-2.47;57.83;101403.28;4381807;32;34442;-55
2022/01/12 03:49:40;;;;;;;44.45;22.35;;;;;;;-2.45;57.75;101406.75;4388549;32;34567;-56
2022/01/12 03:52:08;;;;;;;39.92;20.12;;;;;;;-2.53;58.05;101413.53;4389361;32;32138;-56
2022/01/12 03:54:35;;;;;;;38.78;20.35;;;;;;;-2.55;58.29;101410.91;4381672;32;34820;-55
2022/01/12 03:57:03;;;;;;;42.15;21.65;;;;;;;-2.53;57.96;101408.34;4386209;32;35376;-55
2022/01/12 03:59:31;;;;;;;42.42;21.10;;;;;;;-2.69;58.20;101413.25;4389196;32;33720;-55
2022/01/12 04:01:59;;;;;;;41.13;21.92;;;;;;;-2.66;58.43;101420.16;4368757;32;33536;-55
2022/01/12 04:04:35;;;;;;;40.72;20.58;;;;;;;-2.47;57.77;101416.22;4376814;32;33526;-56
2022/01/12 04:09:49;;;;;;;43.47;22.15;;;;;;;-2.67;58.55;101426.19;4388015;32;35271;-55
2022/01/12 04:12:16;;;;;;;37.22;21.00;;;;;;;-2.66;58.65;101421.03;4373996;32;33217;-55
2022/01/12 04:14:44;;;;;;;42.80;22.92;;;;;;;-2.61;58.57;101421.13;4373957;32;34032;-56
2022/01/12 04:17:13;;;;;;;57.42;32.08;;;;;;;-2.40;58.09;101418.94;4374989;32;33901;-55
2022/01/12 04:19:41;;;;;;;49.50;24.87;;;;;;;-2.10;57.18;101409.06;4373211;32;34014;-56
2022/01/12 04:23:16;;;;;;;;;;;;;;;-2.40;57.94;101413.75;4374330;32;34099;-55
2022/01/12 04:24:56;;;;;;;40.78;22.92;;;;;;;-2.42;57.75;101406.81;4374085;32;33671;-56
2022/01/12 04:27:24;;;;;;;45.63;23.02;;;;;;;-2.74;58.40;101424.34;4375856;32;34931;-56
2022/01/12 04:29:51;;;;;;;42.97;23.20;;;;;;;-2.68;58.47;101421.84;4373852;32;34421;-55
2022/01/12 04:32:21;;;;;;;39.05;20.05;;;;;;;-2.72;58.64;101420.06;4375790;32;33430;-56
2022/01/12 04:34:49;;;;;;;39.92;20.12;;;;;;;-2.52;58.12;101423.91;4388215;32;33629;-56
2022/01/12 04:37:16;;;;;;;40.35;20.20;;;;;;;-2.38;57.66;101421.56;4386887;32;35132;-57
2022/01/12 04:39:45;;;;;;;38.28;19.73;;;;;;;-2.59;58.17;101419.44;4389034;32;34536;-55
2022/01/12 04:42:13;;;;;;;37.15;20.65;;;;;;;-2.67;58.26;101421.91;4382329;32;33961;-55
2022/01/12 04:44:45;;;;;;;41.33;21.05;;;;;;;-2.67;58.10;101418.44;4373993;32;33573;-55
2022/01/12 04:47:39;;;;;;;37.78;20.17;;;;;;;-2.47;57.49;101421.38;4375567;32;34062;-55
2022/01/12 04:50:04;;;;;;;36.17;19.35;;;;;;;-2.66;58.66;101428.78;4373032;32;33775;-56
2022/01/12 04:52:32;;;;;;;36.60;19.85;;;;;;;-2.66;58.44;101435.69;4374351;32;32717;-55
2022/01/12 04:55:00;;;;;;;37.33;20.15;;;;;;;-2.65;57.99;101427.97;4373790;32;34669;-55
2022/01/12 04:57:28;;;;;;;46.40;23.20;;;;;;;-2.65;57.91;101434.84;4379500;32;34536;-55
2022/01/12 05:00:07;;;;;;;43.87;22.52;;;;;;;-2.70;57.88;101436.47;4377133;32;33726;-56
2022/01/12 05:08:19;;;;;;;46.78;23.85;;;;;;;-2.75;58.27;101438.97;4379501;32;34033;-56
2022/01/12 05:13:35;;;;;;;48.38;24.15;;;;;;;-2.56;57.50;101450.53;4374613;32;33652;-56
2022/01/12 05:16:04;;;;;;;48.90;25.70;;;;;;;-2.54;57.05;101456.59;4373013;32;33951;-56
2022/01/12 05:18:33;;;;;;;48.10;24.67;;;;;;;-2.87;58.15;101451.66;4373611;32;34955;-56
2022/01/12 05:21:01;;;;;;;45.95;22.48;;;;;;;-2.50;57.67;101449.78;4384137;32;34396;-56
2022/01/12 05:23:30;;;;;;;44.35;23.58;;;;;;;-2.88;58.55;101442.16;4386479;32;33425;-55
2022/01/12 05:25:58;;;;;;;49.38;24.33;;;;;;;-2.79;58.60;101450.13;4388659;32;33936;-56
2022/01/12 05:28:27;;;;;;;49.90;23.58;;;;;;;-2.92;58.93;101451.56;4387920;32;34942;-55
2022/01/12 05:30:55;;;;;;;51.65;25.92;;;;;;;-2.91;58.64;101453.28;4388825;32;33776;-56
2022/01/12 05:33:25;;;;;;;55.53;26.75;;;;;;;-2.92;58.74;101456.75;4379399;32;32526;-55
2022/01/12 05:35:55;;;;;;;56.42;27.67;;;;;;;-2.76;58.18;101463.09;4373036;32;33936;-55
2022/01/12 05:38:24;;;;;;;52.83;25.30;;;;;;;-2.99;58.79;101457.44;4373170;32;34348;-55
2022/01/12 05:40:55;;;;;;;49.47;24.80;;;;;;;-3.02;59.07;101458.25;4383165;32;34144;-56
2022/01/12 05:43:28;;;;;;;50.53;25.12;;;;;;;-2.91;59.00;101450.72;4387233;32;33197;-56
2022/01/12 05:46:12;;;;;;;53.47;25.90;;;;;;;-2.73;58.38;101452.81;4387775;32;33766;-56
2022/01/12 05:51:32;;;;;;;57.25;27.67;;;;;;;-2.97;58.58;101454.06;4388365;32;33784;-55
2022/01/12 05:54:01;;;;;;;62.13;27.62;;;;;;;-2.97;58.64;101446.31;4386419;32;33312;-55
2022/01/12 05:56:28;;;;;;;52.28;25.70;;;;;;;-3.09;59.25;101456.38;4385152;32;33870;-56
2022/01/12 05:58:55;;;;;;;50.95;24.40;;;;;;;-3.09;59.97;101460.69;4378890;32;34474;-56
2022/01/12 06:01:24;;;;;;;43.47;22.87;;;;;;;-3.09;60.17;101466.72;4382981;32;33285;-56
2022/01/12 06:03:52;;;;;;;48.22;24.08;;;;;;;-3.13;60.35;101466.63;4377366;32;34306;-56
2022/01/12 06:06:21;;;;;;;46.03;22.48;;;;;;;-2.92;59.31;101466.22;4387153;32;34031;-56
2022/01/12 06:08:49;;;;;;;41.45;21.95;;;;;;;-2.99;58.96;101466.06;4375388;32;34139;-55
2022/01/12 06:11:17;;;;;;;44.70;22.50;;;;;;;-3.03;58.96;101473.72;4381538;32;33703;-55
2022/01/12 06:13:45;;;;;;;44.15;22.17;;;;;;;-3.10;58.96;101482.19;4382557;32;34113;-55
2022/01/12 06:16:12;;;;;;;;;;;;;;;-2.92;58.40;101487.75;4390885;32;34250;-55
2022/01/12 06:18:40;;;;;;;42.40;21.98;;;;;;;-3.09;58.81;101489.12;4389619;32;35195;-56
2022/01/12 06:21:08;;;;;;;42.10;22.27;;;;;;;-3.12;58.82;101494.22;4402538;32;32966;-56
2022/01/12 06:23:36;;;;;;;42.30;22.30;;;;;;;-3.11;58.70;101494.25;4389473;32;33095;-56
2022/01/12 06:26:04;;;;;;;;;;;;;;;-3.16;58.84;101498.44;4377430;32;34887;-56
2022/01/12 06:31:17;;;;;;;44.67;21.90;;;;;;;-2.95;61.98;101498.03;4376182;32;33790;-56
2022/01/12 06:33:48;;;;;;;41.15;20.27;;;;;;;-2.95;61.44;101499.75;4375795;32;33271;-56
2022/01/12 06:36:19;;;;;;;;;;;;;;;-3.03;61.74;101505.59;4377160;32;34563;-55
2022/01/12 06:38:48;;;;;;;37.30;20.27;;;;;;;-2.89;67.86;101505.03;4386092;32;34831;-56
2022/01/12 06:41:15;;;;;;;;;;;;;;;-2.87;65.26;101505.94;4381795;32;34009;-55
2022/01/12 06:43:43;;;;;;;38.05;18.85;;;;;;;-2.76;62.39;101501.87;4372926;32;33199;-55
2022/01/12 06:46:13;;;;;;;38.08;19.75;;;;;;;-2.65;60.33;101507.28;4372564;32;33492;-56
2022/01/12 06:48:41;;;;;;;41.58;21.77;;;;;;;-3.15;60.95;101507.94;4372998;32;34558;-55
2022/01/12 06:51:08;;;;;;;44.38;21.58;;;;;;;-3.12;60.83;101514.87;4372897;32;34374;-56
2022/01/12 06:53:36;;;;;;;40.03;20.42;;;;;;;-3.02;60.42;101515.13;4372818;32;33573;-55
2022/01/12 06:56:04;;;;;;;37.70;19.42;;;;;;;-3.13;60.84;101519.19;4372168;32;33577;-55
2022/01/12 06:58:32;;;;;;;41.92;20.73;;;;;;;-3.13;60.40;101519.19;4375919;32;33958;-55
2022/01/12 07:01:00;;;;;;;36.00;19.08;;;;;;;-3.18;61.32;101519.09;4389483;32;34087;-55
2022/01/12 07:03:31;;;;;;;38.95;19.33;;;;;;;-3.02;60.33;101520.28;4387587;32;33335;-55
2022/01/12 07:05:58;;;;;;;36.80;18.25;;;;;;;-3.09;61.40;101526.16;4388173;32;34208;-55
2022/01/12 07:08:26;;;;;;;41.33;19.30;;;;;;;-2.85;60.21;101537.88;4387689;32;34545;-55
2022/01/12 07:10:54;;;;;;;38.63;21.00;;;;;;;-2.80;63.40;101523.34;4380830;32;34048;-55
2022/01/12 07:13:21;;;;;;;46.10;21.80;;;;;;;-2.69;62.27;101529.59;4360898;32;32681;-55
2022/01/12 07:15:54;;;;;;;42.38;21.15;;;;;;;-2.88;61.09;101536.09;4373852;32;33976;-56
2022/01/12 07:18:21;;;;;;;40.15;19.62;;;;;;;-2.86;60.13;101538.72;4374537;32;34481;-55
2022/01/12 07:20:49;;;;;;;41.28;20.27;;;;;;;-2.77;60.22;101538.91;4373641;32;34115;-55
2022/01/12 07:23:17;;;;;;;39.50;20.35;;;;;;;-3.17;61.07;101548.37;4374449;32;34278;-55
2022/01/12 07:25:44;;;;;;;41.33;21.33;;;;;;;-3.00;60.82;101541.87;4373758;32;34759;-55
2022/01/12 07:28:11;;;;;;;43.85;21.45;;;;;;;-2.90;61.33;101552.44;4373855;32;35257;-55
2022/01/12 07:30:39;;;;;;;38.28;21.73;;;;;;;-2.84;63.90;101557.72;4374058;32;34775;-55
2022/01/12 07:33:11;;;;;;;38.97;20.88;;;;;;;-2.77;61.93;101554.44;4373803;32;34001;-56
2022/01/12 07:35:39;;;;;;;37.60;20.40;;;;;;;-2.48;61.07;101567.97;4374074;32;34758;-55
2022/01/12 07:38:07;;;;;;;39.75;21.17;;;;;;;-2.29;60.37;101576.09;4373464;32;35203;-55
2022/01/12 07:40:35;;;;;;;37.45;20.20;;;;;;;-2.38;60.30;101569.03;4374042;32;33644;-55
2022/01/12 07:43:04;;;;;;;42.58;20.75;;;;;;;-2.55;59.91;101571.25;4373726;32;34627;-55
2022/01/12 07:45:33;;;;;;;40.50;21.25;;;;;;;-2.36;59.96;101562.16;4373934;32;33589;-55
2022/01/12 07:48:00;;;;;;;38.28;20.30;;;;;;;-2.35;60.15;101571.66;4373936;32;34905;-55
2022/01/12 07:50:28;;;;;;;41.30;21.10;;;;;;;-2.34;59.95;101568.25;4373537;32;33709;-55
2022/01/12 07:52:56;;;;;;;40.85;21.42;;;;;;;-2.32;59.92;101576.91;4374223;32;33464;-55
2022/01/12 07:55:24;;;;;;;40.45;21.02;;;;;;;-2.16;59.64;101580.66;4373278;32;34818;-55
2022/01/12 07:57:52;;;;;;;39.00;20.92;;;;;;;-1.97;58.81;101579.28;4373794;32;33950;-55
2022/01/12 08:00:20;;;;;;;40.42;21.17;;;;;;;-2.17;59.14;101586.69;4373557;32;33931;-56
2022/01/12 08:02:51;;;;;;;36.90;18.98;;;;;;;-1.97;59.06;101587.06;4373571;32;34433;-55
2022/01/12 08:05:19;;;;;;;37.30;18.20;;;;;;;-1.97;59.55;101587.06;4381640;32;34063;-55
2022/01/12 08:07:48;;;;;;;31.23;17.85;;;;;;;-1.86;58.53;101593.31;4386470;32;33998;-55
2022/01/12 08:10:16;;;;;;;35.30;18.00;;;;;;;-2.05;58.66;101592.09;4386806;32;33628;-55
2022/01/12 08:12:44;;;;;;;;;;;;;;;-1.96;58.78;101588.78;4377495;32;34304;-55
2022/01/12 08:15:11;;;;;;;34.65;17.83;;;;;;;-2.00;58.72;101597.34;4374349;32;34134;-55
2022/01/12 08:17:39;;;;;;;33.38;17.37;;;;;;;-2.12;59.53;101587.62;4373510;32;34530;-55
2022/01/12 08:20:11;;;;;;;37.08;18.92;;;;;;;-2.03;59.35;101585.22;4374378;32;34079;-55
2022/01/12 08:22:39;;;;;;;40.28;18.77;;;;;;;-2.15;59.79;101579.84;4373835;32;33413;-55
2022/01/12 08:25:09;;;;;;;32.30;17.20;;;;;;;-2.06;59.77;101582.56;4373016;32;33466;-57
2022/01/12 08:27:37;;;;;;;32.92;17.17;;;;;;;-1.98;59.67;101588.78;4374079;32;35326;-55
2022/01/12 08:30:06;;;;;;;33.25;17.08;;;;;;;-1.74;59.05;101596.97;4373844;32;34024;-55
2022/01/12 08:32:33;;;;;;;33.30;17.58;;;;;;;-2.11;59.90;101604.03;4385085;32;151648;-55
2022/01/12 08:35:01;;;;;;;35.15;17.58;;;;;;;-1.55;58.17;101608.50;4388701;32;34107;-54
2022/01/12 08:37:28;;;;;;;32.53;17.40;;;;;;;-1.54;58.10;101613.72;4387033;32;34978;-55
2022/01/12 08:39:56;;;;;;;32.95;17.92;;;;;;;-1.47;57.69;101617.31;4383385;32;34294;-55
2022/01/12 08:42:23;;;;;;;35.17;18.23;;;;;;;-1.54;57.71;101613.72;4380843;32;33257;-55
2022/01/12 08:44:51;;;;;;;36.97;18.33;;;;;;;-1.42;57.66;101626.87;4380083;32;33391;-55
2022/01/12 08:47:18;;;;;;;32.17;17.20;;;;;;;-1.54;58.30;101623.22;4377713;32;35293;-55
2022/01/12 08:49:46;;;;;;;35.17;17.42;;;;;;;-1.56;57.97;101618.00;4373569;32;34467;-55
2022/01/12 08:52:22;;;;;;;32.35;17.85;;;;;;;-1.58;58.00;101609.34;4383255;32;34483;-55
2022/01/12 08:54:50;;;;;;;33.65;17.30;;;;;;;-1.78;58.87;101614.19;4381759;32;33946;-55
2022/01/12 08:57:18;;;;;;;33.38;17.90;;;;;;;-1.53;58.74;101615.47;4384969;32;34484;-55
2022/01/12 08:59:48;;;;;;;34.60;17.70;;;;;;;-1.54;58.40;101621.50;4372962;32;33749;-55
2022/01/12 09:02:17;;;;;;;35.47;18.35;;;;;;;-1.55;58.57;101612.00;4373623;32;34175;-55
2022/01/12 09:04:44;;;;;;;36.58;17.80;;;;;;;-1.10;57.90;101610.13;4373078;32;34787;-55
2022/01/12 09:07:12;;;;;;;33.58;17.92;;;;;;;-1.23;58.45;101609.91;4383633;32;34655;-55
2022/01/12 09:09:39;;;;;;;35.92;18.65;;;;;;;-1.19;58.41;101608.25;4374713;32;33750;-55
2022/01/12 09:12:07;;;;;;;;;;;;;;;-1.20;58.63;101603.94;4388480;32;33269;-56
2022/01/12 09:14:35;;;;;;;38.38;18.05;;;;;;;-1.17;58.33;101591.00;4388862;32;35117;-55
2022/01/12 09:17:03;;;;;;;34.38;19.85;;;;;;;-1.01;58.20;101593.00;4387866;32;34078;-55
2022/01/12 09:19:30;;;;;;;;;;;;;;;-1.29;58.19;101599.47;4387452;32;33610;-55
2022/01/12 09:21:58;;;;;;;31.55;15.95;;;;;;;-1.09;58.45;101597.16;4373302;32;33666;-55
2022/01/12 09:24:25;;;;;;;33.08;16.60;;;;;;;-1.01;57.81;101600.78;4373204;32;33420;-56
2022/01/12 09:27:00;;;;;;;31.25;15.75;;;;;;;-1.02;57.72;101601.59;4373158;32;34228;-55
2022/01/12 09:29:27;;;;;;;28.83;16.35;;;;;;;-0.58;56.38;101597.91;4373208;32;32332;-55
2022/01/12 09:31:55;;;;;;;33.00;15.55;;;;;;;-0.67;57.08;101596.03;4373683;32;33427;-55
2022/01/12 09:34:23;;;;;;;31.87;15.80;;;;;;;-0.43;56.05;101600.69;4383392;32;34256;-55
2022/01/12 09:36:50;;;;;;;29.48;15.73;;;;;;;-0.57;56.63;101601.38;4388211;32;34549;-55
2022/01/12 09:39:18;;;;;;;30.98;16.00;;;;;;;-0.62;56.38;101593.50;4373892;32;34371;-56
2022/01/12 09:41:45;;;;;;;30.95;15.85;;;;;;;-0.42;56.74;101586.84;4374643;32;33494;-55
2022/01/12 09:44:15;;;;;;;32.75;17.27;;;;;;;-0.22;56.22;101594.00;4385400;32;34869;-55
2022/01/12 09:46:42;;;;;;;31.62;15.70;;;;;;;-0.36;56.13;101599.03;4387867;32;34211;-55
2022/01/12 09:49:11;;;;;;;34.92;17.62;;;;;;;-0.30;55.31;101603.44;4379316;32;35247;-55
2022/01/12 09:51:38;;;;;;;30.23;15.95;;;;;;;-0.36;55.91;101606.81;4372506;32;34039;-55
2022/01/12 09:54:06;;;;;;;32.38;16.92;;;;;;;-0.45;55.89;101610.16;4383260;32;34981;-55
2022/01/12 09:56:34;;;;;;;33.10;17.50;;;;;;;-0.30;56.10;101601.69;4386311;32;35279;-55
2022/01/12 09:59:01;;;;;;;31.20;15.85;;;;;;;0.00;55.88;101597.72;4386612;32;34852;-55
2022/01/12 10:01:31;;;;;;;30.90;16.42;;;;;;;-0.10;54.19;101608.84;4388005;32;33231;-55
2022/01/12 10:04:16;;;;;;;33.78;16.92;;;;;;;-0.26;54.90;101615.59;4383474;32;33908;-55
2022/01/12 10:06:46;;;;;;;33.00;16.15;;;;;;;-0.19;55.31;101617.41;4376429;32;34606;-55
2022/01/12 10:09:15;;;;;;;32.05;16.70;;;;;;;-0.18;55.24;101616.56;4372345;32;33820;-55
2022/01/12 10:11:57;;;;;;;35.92;17.60;;;;;;;-0.14;54.79;101613.13;4372833;32;33128;-55
2022/01/12 10:14:25;;;;;;;30.30;16.90;;;;;;;-0.11;54.79;101604.53;4380657;32;33581;-55
2022/01/12 10:16:53;;;;;;;;;;;;;;;0.17;54.13;101603.09;4384745;32;34645;-55
2022/01/12 10:19:25;;;;;;;31.73;16.12;;;;;;;0.17;54.31;101603.94;4378559;32;34381;-55
2022/01/12 10:21:54;;;;;;;35.05;17.70;;;;;;;0.27;54.42;101606.66;4371945;32;33249;-56
2022/01/12 10:24:22;;;;;;;32.95;16.85;;;;;;;0.50;53.99;101606.87;4385113;32;34541;-55
2022/01/12 10:26:50;;;;;;;31.65;17.33;;;;;;;0.63;53.17;101600.91;4387593;32;34208;-55
2022/01/12 10:29:26;;;;;;;34.47;17.77;;;;;;;0.27;53.74;101610.13;4387257;32;34772;-55
2022/01/12 10:32:04;;;;;;;32.72;17.75;;;;;;;0.58;52.72;101594.78;4373005;32;33384;-55
2022/01/12 10:34:36;;;;;;;34.13;18.50;;;;;;;0.46;52.88;101605.97;4376399;32;33327;-55
2022/01/12 10:37:07;;;;;;;34.45;18.00;;;;;;;0.61;52.73;101610.44;4374621;32;34083;-55
2022/01/12 10:39:39;;;;;;;34.55;17.87;;;;;;;0.66;52.61;101603.56;4374066;32;34604;-55
2022/01/12 10:42:09;;;;;;;29.30;16.77;;;;;;;0.55;52.02;101603.44;4374256;32;33611;-55
2022/01/12 10:44:43;;;;;;;31.10;17.40;;;;;;;0.68;51.91;101598.34;4380116;32;33674;-55
2022/01/12 10:47:14;;;;;;;31.92;17.27;;;;;;;0.77;51.57;101599.28;4387783;32;35848;-55
2022/01/12 10:49:56;;;;;;;34.05;21.02;;;;;;;0.75;51.61;101590.59;4390058;32;34673;-55
2022/01/12 10:52:25;;;;;;;33.65;18.23;;;;;;;0.83;51.08;101595.84;4376977;32;33353;-55
2022/01/12 10:55:02;;;;;;;34.28;17.95;;;;;;;0.59;51.41;101593.94;4374289;32;33869;-55
2022/01/12 10:57:33;;;;;;;33.75;17.65;;;;;;;0.78;51.44;101594.97;4374508;32;34219;-56
2022/01/12 11:00:00;;;;;;;35.45;22.00;;;;;;;1.07;50.30;101597.78;4374017;32;34783;-55
2022/01/12 11:02:29;;;;;;;44.63;20.00;;;;;;;0.98;50.57;101595.97;4374413;32;34464;-55
2022/01/12 11:04:57;;;;;;;32.72;18.20;;;;;;;1.17;50.56;101591.75;4373573;32;33613;-55
2022/01/12 11:07:26;;;;;;;40.60;19.30;;;;;;;1.41;49.22;101590.16;4377086;32;34960;-56
2022/01/12 11:09:56;;;;;;;35.95;21.80;;;;;;;1.23;49.23;101582.25;4386221;32;33780;-55
2022/01/12 11:12:24;;;;;;;32.10;19.80;;;;;;;1.29;48.47;101590.97;4377388;32;33745;-55
2022/01/12 11:14:52;;;;;;;33.72;20.37;;;;;;;1.24;50.00;101582.28;4379690;32;33575;-55
2022/01/12 11:17:20;;;;;;;;;;;;;;;1.32;49.09;101590.97;4377532;32;34510;-57
2022/01/12 11:19:55;;;;;;;34.10;17.75;;;;;;;1.27;48.37;101587.47;4375907;32;35131;-55
2022/01/12 11:22:54;;;;;;;36.10;18.65;;;;;;;1.50;48.31;101598.00;4375145;32;34179;-55
2022/01/12 11:25:28;;;;;;;37.72;22.58;;;;;;;1.42;48.79;101596.25;4375402;32;33993;-55
2022/01/12 11:28:26;;;;;;;34.70;21.95;;;;;;;1.28;50.89;101596.16;4388977;32;34602;-55
2022/01/12 11:30:56;;;;;;;32.00;20.15;;;;;;;1.40;50.06;101588.44;4358912;32;34107;-55
2022/01/12 11:33:29;;;;;;;32.10;17.20;;;;;;;1.23;49.29;101590.06;4377088;32;33691;-55
2022/01/12 11:36:03;;;;;;;34.33;21.23;;;;;;;1.26;48.82;101593.56;4373823;32;34887;-55
2022/01/12 11:38:35;;;;;;;32.83;18.80;;;;;;;1.29;49.05;101590.97;4379889;32;34198;-55
2022/01/12 11:41:22;;;;;;;35.85;21.52;;;;;;;1.36;48.44;101587.53;4385887;32;34561;-55
2022/01/12 11:44:05;;;;;;;32.83;20.65;;;;;;;1.16;48.77;101581.34;4385332;32;33049;-55
2022/01/12 11:46:53;;;;;;;35.50;20.12;;;;;;;1.46;48.72;101578.03;4386492;32;33523;-55
2022/01/12 11:49:34;;;;;;;39.15;24.77;;;;;;;1.46;49.41;101579.78;4382974;32;34594;-55
2022/01/12 11:52:22;;;;;;;40.70;25.10;;;;;;;1.50;49.90;101576.31;4374130;32;33794;-55
2022/01/12 11:54:53;;;;;;;38.20;23.33;;;;;;;1.42;50.43;101572.81;4378515;32;33446;-55
2022/01/12 11:57:35;;;;;;;38.90;23.98;;;;;;;1.46;50.21;101567.62;4387184;32;33945;-55
2022/01/12 12:00:29;;;;;;;39.65;23.73;;;;;;;1.51;49.72;101565.91;4386578;32;34541;-55
2022/01/12 12:02:57;;;;;;;37.22;23.75;;;;;;;1.49;50.18;101564.16;4388204;32;34039;-55
2022/01/12 12:05:30;;;;;;;41.45;26.45;;;;;;;1.51;50.32;101568.53;4381846;32;33402;-55
2022/01/12 12:08:02;;;;;;;43.50;26.80;;;;;;;1.55;50.37;101577.19;4378570;32;33588;-54
2022/01/12 12:10:34;;;;;;;44.63;27.37;;;;;;;1.75;49.76;101579.88;4362401;32;34097;-55
2022/01/12 12:13:03;;;;;;;41.95;27.50;;;;;;;1.51;51.37;101567.62;4386887;32;34459;-55
2022/01/12 12:15:30;;;;;;;43.42;28.67;;;;;;;1.61;50.58;101573.75;4382610;32;33099;-55
2022/01/12 12:18:00;;;;;;;43.85;27.33;;;;;;;1.68;50.36;101559.88;4373269;32;33510;-55
2022/01/12 12:20:28;;;;;;;45.33;27.75;;;;;;;1.87;50.08;101560.81;4379406;32;35364;-55
2022/01/12 12:22:55;;;;;;;44.47;28.65;;;;;;;1.78;49.93;101566.84;4376103;32;34895;-55
2022/01/12 12:25:25;;;;;;;42.92;27.30;;;;;;;1.78;49.74;101566.84;4373593;32;33095;-55
2022/01/12 12:27:57;;;;;;;44.47;27.67;;;;;;;1.80;49.60;101566.88;4374195;32;33892;-55
2022/01/12 12:30:27;;;;;;;44.05;26.52;;;;;;;1.67;49.67;101563.38;4386558;32;34921;-55
2022/01/12 12:32:56;;;;;;;41.72;25.75;;;;;;;1.75;49.18;101565.13;4388545;32;33744;-55
2022/01/12 12:35:27;;;;;;;40.75;26.15;;;;;;;2.05;48.57;101567.81;4387704;32;32539;-55
2022/01/12 12:38:00;;;;;;;38.88;25.67;;;;;;;1.88;48.82;101570.34;4376834;32;34458;-55
2022/01/12 12:40:41;;;;;;;43.33;26.25;;;;;;;1.99;48.73;101578.22;4386700;32;34225;-56
2022/01/12 12:43:25;;;;;;;44.05;27.08;;;;;;;1.90;48.33;101585.16;4386310;32;33935;-55